Time;durP1;ratioP1;P1;durP2;ratioP2;P2;SDS_P1;SDS_P2;PMS_P1;PMS_P2;Temp;Humidity;BMP_temperature;BMP_pressure;BME280_temperature;BME280_humidity;BME280_pressure;Samples;Min_cycle;Max_cycle;Signal;HPM_P1;HPM_P2
2023/01/25 00:01:51;;;;;;;55.20;33.00;;;2.70;99.90;;;;;;10454900;28;20692;-87
2023/01/25 00:06:54;;;;;;;54.30;35.20;;;3.30;99.90;;;;;;10470102;28;20223;-87
2023/01/25 00:11:57;;;;;;;66.57;37.70;;;3.20;99.90;;;;;;10474867;28;20258;-86
2023/01/25 00:16:59;;;;;;;61.60;35.37;;;2.50;99.90;;;;;;10495867;28;20809;-86
2023/01/25 00:22:02;;;;;;;62.73;37.30;;;2.40;99.90;;;;;;10441068;28;20234;-87
2023/01/25 00:27:04;;;;;;;60.70;37.03;;;2.30;99.90;;;;;;10454649;28;20352;-87
2023/01/25 00:32:31;;;;;;;58.83;36.27;;;2.30;99.90;;;;;;10454824;28;20263;-87
2023/01/25 00:37:46;;;;;;;68.97;41.67;;;2.20;99.90;;;;;;10413125;28;20281;-87
2023/01/25 00:42:48;;;;;;;46.67;26.83;;;1.70;99.90;;;;;;10417760;28;20226;-87
2023/01/25 00:47:54;;;;;;;57.10;32.60;;;2.20;99.90;;;;;;10487856;28;20246;-87
2023/01/25 00:52:57;;;;;;;53.80;33.87;;;2.30;99.90;;;;;;10478238;28;20303;-87
2023/01/25 00:57:59;;;;;;;55.70;33.60;;;2.20;99.90;;;;;;10469295;28;20216;-86
2023/01/25 01:03:02;;;;;;;51.07;32.73;;;2.50;99.90;;;;;;10453764;28;20239;-87
2023/01/25 01:08:04;;;;;;;48.17;28.00;;;2.20;99.90;;;;;;10453677;28;20561;-87
2023/01/25 01:13:07;;;;;;;52.03;30.17;;;2.10;99.90;;;;;;10452748;28;20251;-87
2023/01/25 01:18:09;;;;;;;47.80;28.23;;;2.20;99.90;;;;;;10447641;28;20263;-87
2023/01/25 01:23:12;;;;;;;54.43;30.20;;;2.30;99.90;;;;;;10435069;28;20295;-87
2023/01/25 01:28:14;;;;;;;50.33;29.43;;;2.10;99.90;;;;;;10445764;28;20628;-87
2023/01/25 01:33:17;;;;;;;42.33;27.10;;;2.30;99.90;;;;;;10450574;28;20249;-87
2023/01/25 01:38:20;;;;;;;51.70;29.80;;;2.10;99.90;;;;;;10434154;28;20300;-87
2023/01/25 01:43:23;;;;;;;44.00;26.80;;;2.00;99.90;;;;;;10458548;28;20356;-87
2023/01/25 01:48:48;;;;;;;42.80;26.07;;;2.00;99.90;;;;;;10433444;28;20234;-87
2023/01/25 01:54:01;;;;;;;46.40;28.67;;;2.20;99.90;;;;;;10449609;28;20671;-87
2023/01/25 01:59:06;;;;;;;44.47;27.30;;;2.50;99.90;;;;;;10432925;28;20208;-87
2023/01/25 02:04:10;;;;;;;49.23;29.40;;;2.30;99.90;;;;;;10433559;28;20762;-87
2023/01/25 02:09:17;;;;;;;55.37;31.03;;;2.40;99.90;;;;;;10449660;28;20268;-87
2023/01/25 02:14:20;;;;;;;47.03;28.27;;;2.30;99.90;;;;;;10462820;28;20261;-87
2023/01/25 02:19:50;;;;;;;52.77;31.13;;;3.00;99.90;;;;;;10474152;28;20219;-87
2023/01/25 02:25:10;;;;;;;45.63;27.60;;;3.00;99.90;;;;;;10489914;28;20329;-87
2023/01/25 02:30:13;;;;;;;32.73;21.30;;;3.30;99.90;;;;;;10457179;28;20238;-87
2023/01/25 02:35:23;;;;;;;37.83;24.23;;;4.10;99.90;;;;;;10449653;28;20259;-87
2023/01/25 02:40:27;;;;;;;40.23;25.23;;;3.10;99.90;;;;;;10431447;28;20210;-87
2023/01/25 02:45:30;;;;;;;47.57;28.43;;;3.80;99.90;;;;;;10430072;28;20232;-87
2023/01/25 02:50:33;;;;;;;51.37;27.73;;;3.70;99.90;;;;;;10431935;28;20235;-87
2023/01/25 02:55:35;;;;;;;38.00;23.30;;;3.80;99.90;;;;;;10461460;28;20733;-87
2023/01/25 03:00:38;;;;;;;45.43;26.87;;;3.50;99.90;;;;;;10448100;28;20228;-87
2023/01/25 03:05:41;;;;;;;42.20;25.83;;;4.20;99.90;;;;;;10448264;28;20284;-87
2023/01/25 03:10:43;;;;;;;46.60;26.07;;;4.20;99.90;;;;;;10446822;28;20243;-87
2023/01/25 03:15:46;;;;;;;43.30;26.73;;;4.20;99.90;;;;;;10430577;28;20325;-87
2023/01/25 03:20:48;;;;;;;39.83;25.60;;;4.50;99.90;;;;;;10430768;28;20243;-87
2023/01/25 03:25:52;;;;;;;46.07;27.50;;;4.50;99.90;;;;;;10447380;28;20268;-87
2023/01/25 03:30:54;;;;;;;44.67;26.47;;;3.80;99.90;;;;;;10446908;28;20238;-87
2023/01/25 03:35:58;;;;;;;40.17;25.97;;;3.40;99.90;;;;;;10429729;28;20262;-87
2023/01/25 03:41:02;;;;;;;39.30;24.87;;;3.80;99.90;;;;;;10446984;28;20261;-87
2023/01/25 03:46:07;;;;;;;40.67;23.47;;;4.10;99.90;;;;;;10431039;28;20297;-87
2023/01/25 03:51:09;;;;;;;46.10;28.33;;;4.30;99.90;;;;;;10429818;28;20278;-87
2023/01/25 03:56:18;;;;;;;38.27;22.13;;;3.50;99.90;;;;;;10448169;28;20292;-87
2023/01/25 04:01:38;;;;;;;37.30;24.10;;;3.60;99.90;;;;;;10430006;28;20230;-87
2023/01/25 04:06:41;;;;;;;36.00;22.00;;;4.20;99.90;;;;;;10462151;28;20285;-87
2023/01/25 04:11:43;;;;;;;33.97;20.20;;;4.60;99.90;;;;;;10430095;28;20231;-87
2023/01/25 04:16:47;;;;;;;36.60;22.77;;;4.50;99.90;;;;;;10452950;28;20263;-87
2023/01/25 04:22:22;;;;;;;35.63;24.00;;;4.10;99.90;;;;;;10444412;28;20227;-87
2023/01/25 04:27:27;;;;;;;34.83;21.70;;;4.30;99.90;;;;;;10469074;28;20239;-87
2023/01/25 04:32:37;;;;;;;30.50;19.60;;;4.20;99.90;;;;;;10453836;28;20238;-87
2023/01/25 04:37:57;;;;;;;41.43;24.13;;;4.50;99.90;;;;;;10435750;28;20235;-87
2023/01/25 04:43:05;;;;;;;33.37;21.17;;;3.60;99.90;;;;;;10451544;28;20238;-87
2023/01/25 04:48:11;;;;;;;34.40;21.80;;;3.80;99.90;;;;;;10435795;28;20734;-87
2023/01/25 04:53:22;;;;;;;34.07;20.87;;;3.10;99.90;;;;;;10451647;28;20263;-87
2023/01/25 04:58:25;;;;;;;35.03;22.67;;;4.10;99.90;;;;;;10487758;28;20242;-87
2023/01/25 05:03:29;;;;;;;28.87;18.70;;;4.20;99.90;;;;;;10475333;28;20206;-87
2023/01/25 05:08:32;;;;;;;27.83;17.87;;;4.00;99.90;;;;;;10475907;28;20237;-87
2023/01/25 05:13:37;;;;;;;29.23;17.80;;;4.80;99.90;;;;;;10433811;28;20261;-88
2023/01/25 05:19:00;;;;;;;28.97;18.03;;;5.20;99.90;;;;;;10451908;28;20292;-88
2023/01/25 05:24:11;;;;;;;33.27;21.57;;;5.00;99.90;;;;;;10436018;28;20251;-89
2023/01/25 05:29:14;;;;;;;32.43;22.20;;;4.60;99.90;;;;;;10432650;28;20244;-87
2023/01/25 05:34:40;;;;;;;35.83;23.17;;;3.80;99.90;;;;;;10432841;28;20254;-87
2023/01/25 05:39:43;;;;;;;15.30;9.37;;;3.90;99.90;;;;;;10449170;28;20231;-88
2023/01/25 05:44:46;;;;;;;38.33;21.63;;;4.20;99.90;;;;;;10450169;28;20746;-88
2023/01/25 05:49:50;;;;;;;32.60;21.23;;;6.30;99.90;;;;;;10432218;28;20246;-88
2023/01/25 05:55:01;;;;;;;32.07;21.23;;;6.00;99.90;;;;;;10432425;28;20254;-88
2023/01/25 06:00:05;;;;;;;27.67;18.23;;;5.50;99.90;;;;;;10448557;28;20262;-88
2023/01/25 06:05:14;;;;;;;24.80;17.20;;;5.40;99.90;;;;;;10434333;28;20269;-88
2023/01/25 06:10:18;;;;;;;28.23;18.33;;;5.10;99.90;;;;;;10411192;28;20271;-89
2023/01/25 06:15:24;;;;;;;25.97;17.23;;;4.60;99.90;;;;;;10429240;28;20264;-87
2023/01/25 06:20:29;;;;;;;28.17;17.30;;;3.90;99.90;;;;;;10464710;28;20242;-87
2023/01/25 06:25:40;;;;;;;25.33;15.30;;;3.20;99.90;;;;;;10394519;28;20428;-88
2023/01/25 06:30:43;;;;;;;20.87;14.57;;;4.70;99.90;;;;;;10428974;28;20299;-88
2023/01/25 06:35:45;;;;;;;20.20;13.23;;;5.30;99.90;;;;;;10448078;28;20246;-88
2023/01/25 06:40:48;;;;;;;19.23;12.87;;;5.30;99.90;;;;;;10431698;28;20281;-89
2023/01/25 06:45:50;;;;;;;13.43;9.53;;;6.50;99.90;;;;;;10447260;28;20292;-87
2023/01/25 06:50:55;;;;;;;11.80;9.00;;;7.10;99.90;;;;;;10430465;28;20234;-88
2023/01/25 06:56:05;;;;;;;16.60;11.03;;;6.90;99.90;;;;;;10430013;28;20711;-88
2023/01/25 07:01:15;;;;;;;15.67;10.60;;;6.50;99.90;;;;;;10448490;28;20223;-88
2023/01/25 07:06:18;;;;;;;16.10;11.13;;;7.00;99.90;;;;;;10447679;28;20251;-89
2023/01/25 07:11:21;;;;;;;15.87;10.97;;;7.40;99.90;;;;;;10445494;28;20764;-89
2023/01/25 07:16:23;;;;;;;15.57;9.37;;;7.20;99.90;;;;;;10453145;28;20716;-89
2023/01/25 07:21:26;;;;;;;11.93;8.77;;;8.30;99.90;;;;;;10404154;28;20635;-88
2023/01/25 07:26:29;;;;;;;11.80;8.40;;;8.70;99.90;;;;;;10405491;28;20699;-88
2023/01/25 07:31:32;;;;;;;9.00;7.00;;;7.90;99.90;;;;;;10405455;28;20235;-89
2023/01/25 07:36:35;;;;;;;11.37;7.73;;;6.90;99.90;;;;;;10399754;28;20635;-89
2023/01/25 07:41:39;;;;;;;11.07;8.07;;;6.40;99.90;;;;;;10445623;28;20693;-88
2023/01/25 07:46:46;;;;;;;9.73;6.73;;;6.50;99.90;;;;;;10444636;28;20243;-88
2023/01/25 07:51:49;;;;;;;8.43;6.73;;;6.90;99.90;;;;;;10453064;28;20301;-89
2023/01/25 07:56:51;;;;;;;9.40;7.30;;;8.10;99.90;;;;;;10451414;28;20316;-88
2023/01/25 08:01:54;;;;;;;14.07;8.40;;;8.20;99.90;;;;;;10452363;28;20230;-88
2023/01/25 08:06:56;;;;;;;10.37;8.10;;;7.20;99.90;;;;;;10451209;28;20238;-88
2023/01/25 08:11:59;;;;;;;11.43;7.97;;;6.70;99.90;;;;;;10450610;28;20688;-89
2023/01/25 08:17:01;;;;;;;9.03;7.67;;;7.50;99.90;;;;;;10410957;28;1201471;-88
2023/01/25 08:22:07;;;;;;;11.80;7.63;;;7.60;99.90;;;;;;10454731;28;20234;-88
2023/01/25 08:27:10;;;;;;;13.37;8.37;;;6.70;99.90;;;;;;10454446;28;20633;-88
2023/01/25 08:32:12;;;;;;;14.83;10.13;;;7.10;99.90;;;;;;10436360;28;20234;-88
2023/01/25 08:37:15;;;;;;;11.90;8.63;;;7.00;99.90;;;;;;10453850;28;20718;-88
2023/01/25 08:42:18;;;;;;;11.80;8.10;;;7.30;99.90;;;;;;10435182;28;20285;-88
2023/01/25 08:47:22;;;;;;;10.90;8.17;;;7.60;99.90;;;;;;10451663;28;20274;-88
2023/01/25 08:52:24;;;;;;;9.53;7.17;;;7.50;99.90;;;;;;10451464;28;20246;-88
2023/01/25 08:57:27;;;;;;;12.47;7.50;;;7.80;99.90;;;;;;10452655;28;20258;-88
2023/01/25 09:02:29;;;;;;;11.77;8.17;;;8.10;99.90;;;;;;10452747;28;20231;-88
2023/01/25 09:07:36;;;;;;;15.43;9.30;;;7.60;99.90;;;;;;10451191;28;20247;-88
2023/01/25 09:12:39;;;;;;;12.43;9.10;;;7.50;99.90;;;;;;10452762;28;20234;-88
2023/01/25 09:17:41;;;;;;;10.50;8.40;;;6.90;99.90;;;;;;10451811;28;20266;-88
2023/01/25 09:22:44;;;;;;;14.17;9.57;;;6.30;99.90;;;;;;10434659;28;20284;-88
2023/01/25 09:27:50;;;;;;;18.57;10.90;;;5.90;99.90;;;;;;10451698;28;20238;-88
2023/01/25 09:32:52;;;;;;;10.33;7.53;;;6.10;99.90;;;;;;10417659;28;20247;-88
2023/01/25 09:37:55;;;;;;;10.40;7.13;;;6.60;99.90;;;;;;10451926;28;20227;-88
2023/01/25 09:43:19;;;;;;;10.23;8.17;;;7.50;99.90;;;;;;10451073;28;20300;-88
2023/01/25 09:48:29;;;;;;;11.70;7.87;;;7.60;99.90;;;;;;10449776;28;20629;-88
2023/01/25 09:53:50;;;;;;;10.60;7.97;;;7.40;99.90;;;;;;10450622;28;20254;-88
2023/01/25 09:58:58;;;;;;;11.40;7.50;;;7.70;99.90;;;;;;10432348;28;20281;-93
2023/01/25 10:04:08;;;;;;;12.70;9.70;;;8.70;99.90;;;;;;10468073;28;20226;-91
2023/01/25 10:09:20;;;;;;;15.53;9.63;;;8.80;99.90;;;;;;10476899;28;20229;-91
2023/01/25 10:14:24;;;;;;;13.17;10.07;;;8.30;99.90;;;;;;10467090;28;20265;-91
2023/01/25 10:19:54;;;;;;;15.50;10.93;;;7.10;99.90;;;;;;10462539;28;20681;-91
2023/01/25 10:25:14;;;;;;;15.70;10.93;;;6.90;99.90;;;;;;10449422;28;20691;-91
2023/01/25 10:30:20;;;;;;;16.57;10.73;;;6.40;99.90;;;;;;10448437;28;20772;-90
2023/01/25 10:35:31;;;;;;;18.20;12.50;;;6.60;99.90;;;;;;10455466;28;20267;-91
2023/01/25 10:41:18;;;;;;;15.47;11.77;;;6.30;99.90;;;;;;10449349;28;20226;-90
2023/01/25 10:46:24;;;;;;;14.10;10.20;;;6.20;99.90;;;;;;10409412;28;20238;-90
2023/01/25 10:51:32;;;;;;;15.27;11.40;;;5.90;99.90;;;;;;10449383;28;20281;-91
2023/01/25 10:56:38;;;;;;;17.07;11.73;;;6.40;99.90;;;;;;10449530;28;20244;-91
2023/01/25 11:01:41;;;;;;;19.03;12.77;;;6.10;99.90;;;;;;10447376;28;20238;-90
2023/01/25 11:06:50;;;;;;;14.90;10.50;;;5.60;99.90;;;;;;10447557;28;20292;-91
2023/01/25 11:12:17;;;;;;;20.97;12.47;;;6.40;99.90;;;;;;10468497;28;20239;-90
2023/01/25 11:17:22;;;;;;;17.70;12.70;;;7.10;99.90;;;;;;10440612;28;20297;-90
2023/01/25 11:22:27;;;;;;;16.43;12.30;;;7.90;99.90;;;;;;10447541;28;20226;-91
2023/01/25 11:27:30;;;;;;;15.33;11.10;;;7.80;99.90;;;;;;10456060;28;20250;-91
2023/01/25 11:32:33;;;;;;;17.90;10.03;;;7.60;99.90;;;;;;10445308;28;20230;-90
2023/01/25 11:37:40;;;;;;;18.73;13.37;;;7.80;99.90;;;;;;10460253;28;20247;-90
2023/01/25 11:43:08;;;;;;;13.10;9.57;;;7.40;99.90;;;;;;10453181;28;20258;-90
2023/01/25 11:48:19;;;;;;;10.80;7.97;;;7.70;99.90;;;;;;10455778;28;20752;-91
2023/01/25 11:54:13;;;;;;;13.60;9.43;;;8.10;99.90;;;;;;10454968;28;20257;-89
2023/01/25 11:59:43;;;;;;;16.27;11.97;;;7.90;99.90;;;;;;10287086;28;20234;-90
2023/01/25 12:05:04;;;;;;;15.23;10.83;;;8.00;99.90;;;;;;10287876;28;20258;-90
2023/01/25 12:10:26;;;;;;;19.53;12.33;;;7.70;99.90;;;;;;10300135;28;20284;-91
2023/01/25 12:15:53;;;;;;;23.80;15.50;;;8.20;99.90;;;;;;10307090;28;20260;-85
2023/01/25 12:20:56;;;;;;;22.80;13.77;;;6.80;99.90;;;;;;10281242;28;20233;-90
2023/01/25 12:26:17;;;;;;;12.60;9.13;;;4.90;99.90;;;;;;10302257;28;20236;-90
2023/01/25 12:31:31;;;;;;;12.60;8.83;;;6.10;99.90;;;;;;10273967;28;20244;-90
2023/01/25 12:36:42;;;;;;;12.90;8.67;;;6.30;99.90;;;;;;10460333;28;20666;-90
2023/01/25 12:41:47;;;;;;;17.37;10.83;;;7.10;99.90;;;;;;10454492;28;21042;-90
2023/01/25 12:46:59;;;;;;;12.20;9.47;;;7.10;99.90;;;;;;10451804;28;20627;-90
2023/01/25 12:52:06;;;;;;;15.93;11.23;;;7.60;99.90;;;;;;10451848;28;20290;-92
2023/01/25 12:57:24;;;;;;;20.30;13.20;;;7.40;99.90;;;;;;10450889;28;20959;-91
2023/01/25 13:02:49;;;;;;;23.83;14.87;;;6.80;99.90;;;;;;10432771;28;20226;-90
2023/01/25 13:07:59;;;;;;;20.77;12.73;;;6.10;99.90;;;;;;10443984;28;20344;-91
2023/01/25 13:13:19;;;;;;;20.57;12.73;;;6.80;99.90;;;;;;10447555;28;20227;-90
2023/01/25 13:18:28;;;;;;;16.50;12.00;;;8.60;99.90;;;;;;10443059;28;20842;-91
2023/01/25 13:23:58;;;;;;;22.40;12.47;;;7.80;99.90;;;;;;10432999;28;20282;-91
2023/01/25 13:28:59;;;;;;;18.77;12.00;;;8.00;99.90;;;;;;10447523;28;20283;-92
2023/01/25 13:34:04;;;;;;;23.27;14.83;;;7.90;99.90;;;;;;10449723;28;20665;-92
2023/01/25 13:39:22;;;;;;;17.20;12.60;;;7.60;99.90;;;;;;10449562;28;20687;-91
2023/01/25 13:44:28;;;;;;;17.83;11.50;;;6.60;99.90;;;;;;10449917;28;20242;-92
2023/01/25 13:49:39;;;;;;;17.60;11.13;;;7.00;99.90;;;;;;10442017;28;20657;-92
2023/01/25 13:54:44;;;;;;;18.73;11.30;;;7.10;99.90;;;;;;10433511;28;20285;-92
2023/01/25 13:59:46;;;;;;;17.67;11.70;;;7.20;99.90;;;;;;10432852;28;20300;-93
2023/01/25 14:04:52;;;;;;;18.37;12.00;;;7.70;99.90;;;;;;10451634;28;20288;-92
2023/01/25 14:09:55;;;;;;;20.43;13.70;;;6.90;99.90;;;;;;10449235;28;20277;-92
2023/01/25 14:15:23;;;;;;;18.80;11.27;;;6.70;99.90;;;;;;10451210;28;20674;-92
2023/01/25 14:20:26;;;;;;;19.27;12.03;;;6.60;99.90;;;;;;10462949;28;20238;-92
2023/01/25 14:25:28;;;;;;;21.87;14.20;;;6.70;99.90;;;;;;10454925;28;20234;-91
2023/01/25 14:30:33;;;;;;;31.83;19.30;;;7.20;99.90;;;;;;10448730;28;20242;-92
2023/01/25 14:35:39;;;;;;;19.23;9.87;;;5.00;99.90;;;;;;10457689;28;20312;-92
2023/01/25 14:40:57;;;;;;;27.03;16.37;;;4.40;99.90;;;;;;10465881;28;20627;-91
2023/01/25 14:46:00;;;;;;;23.20;15.07;;;5.10;99.90;;;;;;10447997;28;20300;-93
2023/01/25 14:51:15;;;;;;;27.90;16.87;;;5.60;99.90;;;;;;10443830;28;20236;-92
2023/01/25 14:56:38;;;;;;;22.23;14.77;;;5.60;99.90;;;;;;10453333;28;20252;-92
2023/01/25 15:01:41;;;;;;;30.73;17.17;;;5.10;99.90;;;;;;10467154;28;20288;-94
2023/01/25 15:06:49;;;;;;;22.47;13.53;;;4.90;99.90;;;;;;10449379;28;20274;-92
2023/01/25 15:11:59;;;;;;;26.60;15.90;;;5.70;99.90;;;;;;10431062;28;20765;-92
2023/01/25 15:17:01;;;;;;;25.83;15.93;;;7.60;99.90;;;;;;10456849;28;20277;-91
2023/01/25 15:22:07;;;;;;;24.53;16.20;;;7.80;99.90;;;;;;10457485;28;20411;-91
2023/01/25 15:27:10;;;;;;;38.73;19.90;;;7.30;99.90;;;;;;10451939;28;20226;-91
2023/01/25 15:32:20;;;;;;;38.57;22.50;;;6.60;99.90;;;;;;10462472;28;20259;-92
2023/01/25 15:37:22;;;;;;;40.47;23.37;;;6.00;99.90;;;;;;10468350;28;20262;-92
2023/01/25 15:42:27;;;;;;;42.47;25.00;;;5.60;99.90;;;;;;10482152;28;20246;-92
2023/01/25 15:47:30;;;;;;;28.53;18.40;;;4.80;99.90;;;;;;10467611;28;20203;-91
2023/01/25 15:52:33;;;;;;;32.60;17.67;;;4.80;99.90;;;;;;10456469;28;20258;-92
2023/01/25 15:57:36;;;;;;;34.40;19.37;;;4.90;99.90;;;;;;10436831;28;20228;-93
2023/01/25 16:02:38;;;;;;;28.23;16.60;;;5.30;99.90;;;;;;10478630;28;20625;-91
2023/01/25 16:07:42;;;;;;;28.13;18.10;;;5.80;99.90;;;;;;10450472;28;20289;-91
2023/01/25 16:12:45;;;;;;;29.30;18.60;;;6.50;99.90;;;;;;10469595;28;20204;-92
2023/01/25 16:17:47;;;;;;;25.93;17.23;;;6.20;99.90;;;;;;10456868;28;20270;-90
2023/01/25 16:22:50;;;;;;;33.80;20.70;;;6.20;99.90;;;;;;10478119;28;20252;-90
2023/01/25 16:27:52;;;;;;;30.90;19.77;;;5.80;99.90;;;;;;10445022;28;20210;-91
2023/01/25 16:32:55;;;;;;;35.43;20.93;;;4.70;99.90;;;;;;10456419;28;20285;-91
2023/01/25 16:37:57;;;;;;;31.43;18.73;;;4.40;99.90;;;;;;10453970;28;20254;-90
2023/01/25 16:43:00;;;;;;;36.73;19.30;;;4.10;99.90;;;;;;10435142;28;20267;-91
2023/01/25 16:48:03;;;;;;;28.90;16.67;;;4.40;99.90;;;;;;10456542;28;20235;-91
2023/01/25 16:53:06;;;;;;;31.77;19.40;;;6.70;99.90;;;;;;10474434;28;20206;-91
2023/01/25 16:58:08;;;;;;;31.40;17.03;;;6.00;99.90;;;;;;10454656;28;20262;-90
2023/01/25 17:03:11;;;;;;;33.07;18.60;;;5.80;99.90;;;;;;10466401;28;21048;-90
2023/01/25 17:08:13;;;;;;;39.07;20.83;;;6.10;99.90;;;;;;10467832;28;20684;-89
2023/01/25 17:13:16;;;;;;;49.70;25.13;;;6.10;99.90;;;;;;10432367;28;20640;-90
2023/01/25 17:18:19;;;;;;;57.50;29.90;;;6.10;99.90;;;;;;10452117;28;20696;-91
2023/01/25 17:23:21;;;;;;;36.80;21.53;;;6.10;99.90;;;;;;10447040;28;20288;-88
2023/01/25 17:28:24;;;;;;;38.87;21.80;;;5.70;99.90;;;;;;10093677;28;10000232;-90
2023/01/25 17:33:27;;;;;;;47.60;26.77;;;6.40;99.90;;;;;;10431918;28;20260;-91
2023/01/25 17:38:30;;;;;;;39.93;24.30;;;5.20;99.90;;;;;;10433138;28;20654;-91
2023/01/25 17:43:33;;;;;;;36.63;20.30;;;5.40;99.90;;;;;;10477131;28;20247;-91
2023/01/25 17:48:36;;;;;;;42.27;23.27;;;4.70;99.90;;;;;;10471665;28;20300;-91
2023/01/25 17:53:38;;;;;;;39.00;21.20;;;4.20;99.90;;;;;;10490553;28;20229;-92
2023/01/25 17:58:41;;;;;;;45.77;24.00;;;3.70;99.90;;;;;;10480748;28;20253;-91
2023/01/25 18:03:46;;;;;;;38.97;22.77;;;3.70;99.90;;;;;;10461267;28;20236;-92
2023/01/25 18:08:50;;;;;;;37.80;22.87;;;3.90;99.90;;;;;;10459094;28;20230;-91
2023/01/25 18:13:55;;;;;;;36.13;20.33;;;4.30;99.90;;;;;;10488151;28;20574;-91
2023/01/25 18:18:59;;;;;;;34.73;21.10;;;4.10;99.90;;;;;;10450051;28;20285;-92
2023/01/25 18:24:25;;;;;;;41.47;23.33;;;4.00;99.90;;;;;;10448469;28;20294;-92
2023/01/25 18:29:47;;;;;;;39.40;22.67;;;3.70;99.90;;;;;;10401030;28;20238;-91
2023/01/25 18:34:50;;;;;;;45.03;26.77;;;3.60;99.90;;;;;;10433625;28;20234;-91
2023/01/25 18:39:54;;;;;;;32.07;18.90;;;3.00;99.90;;;;;;10448255;28;20632;-91
2023/01/25 18:44:57;;;;;;;47.33;26.43;;;3.60;99.90;;;;;;10447839;28;20239;-91
2023/01/25 18:50:00;;;;;;;46.73;25.90;;;4.20;99.90;;;;;;10464648;28;20320;-91
2023/01/25 18:55:03;;;;;;;51.90;27.43;;;3.50;99.90;;;;;;10449377;28;20285;-91
2023/01/25 19:00:09;;;;;;;44.43;26.87;;;3.00;99.90;;;;;;10447680;28;20210;-90
2023/01/25 19:05:13;;;;;;;41.83;25.23;;;2.70;99.90;;;;;;10449085;28;20739;-89
2023/01/25 19:10:17;;;;;;;76.93;41.33;;;2.80;99.90;;;;;;10461880;28;20273;-91
2023/01/25 19:15:20;;;;;;;72.37;37.40;;;2.90;99.90;;;;;;10452277;28;20232;-94
2023/01/25 19:20:25;;;;;;;44.47;22.23;;;2.80;99.90;;;;;;10449865;28;20634;-86
2023/01/25 19:25:29;;;;;;;71.33;36.23;;;5.30;99.90;;;;;;10449197;28;20226;-86
2023/01/25 19:30:32;;;;;;;71.63;36.37;;;5.10;99.90;;;;;;10448622;28;20240;-86
2023/01/25 19:35:35;;;;;;;83.23;37.30;;;4.10;99.90;;;;;;10431258;28;20939;-87
2023/01/25 19:40:38;;;;;;;77.47;36.40;;;3.20;99.90;;;;;;10449012;28;20280;-87
2023/01/25 19:45:41;;;;;;;86.77;37.30;;;3.20;99.90;;;;;;10454681;28;20330;-87
2023/01/25 19:50:44;;;;;;;78.73;39.97;;;3.00;99.90;;;;;;10457160;28;20743;-86
2023/01/25 19:55:47;;;;;;;91.43;41.57;;;2.80;99.90;;;;;;10457066;28;20259;-87
2023/01/25 20:00:50;;;;;;;83.30;38.37;;;2.60;99.90;;;;;;10456216;28;20234;-86
2023/01/25 20:05:58;;;;;;;96.93;46.80;;;4.70;99.90;;;;;;10452502;28;20253;-87
2023/01/25 20:11:07;;;;;;;99.93;49.07;;;4.70;99.90;;;;;;10456346;28;20643;-87
2023/01/25 20:16:11;;;;;;;102.47;48.37;;;3.70;99.90;;;;;;10455851;28;20258;-87
2023/01/25 20:21:21;;;;;;;105.50;46.53;;;3.20;99.90;;;;;;10455892;28;20270;-87
2023/01/25 20:26:31;;;;;;;103.07;49.63;;;3.50;99.90;;;;;;10455175;28;20246;-87
2023/01/25 20:31:37;;;;;;;92.63;44.53;;;3.70;99.90;;;;;;10455057;28;20235;-88
2023/01/25 20:36:41;;;;;;;91.50;47.80;;;3.30;99.90;;;;;;10454238;28;20711;-87
2023/01/25 20:41:45;;;;;;;87.30;38.70;;;2.90;99.90;;;;;;10436691;28;20598;-92
2023/01/25 20:46:50;;;;;;;96.37;45.37;;;2.70;99.90;;;;;;10459380;28;20239;-88
2023/01/25 20:51:54;;;;;;;93.93;45.10;;;4.90;99.90;;;;;;10454214;28;20222;-88
2023/01/25 20:56:57;;;;;;;86.33;42.97;;;4.00;99.90;;;;;;10452188;28;20284;-88
2023/01/25 21:02:00;;;;;;;92.27;43.77;;;3.30;99.90;;;;;;10455058;28;20230;-88
2023/01/25 21:07:03;;;;;;;86.70;41.40;;;2.90;99.90;;;;;;10453771;28;20664;-88
2023/01/25 21:12:06;;;;;;;85.97;42.00;;;2.80;99.90;;;;;;10102486;28;10000441;-88
2023/01/25 21:17:10;;;;;;;86.83;42.67;;;2.60;99.90;;;;;;10439003;28;20331;-88
2023/01/25 21:22:12;;;;;;;103.27;46.97;;;2.60;99.90;;;;;;10452282;28;20266;-89
2023/01/25 21:27:16;;;;;;;104.00;49.33;;;2.50;99.90;;;;;;10450567;28;20238;-89
2023/01/25 21:32:18;;;;;;;104.13;48.80;;;2.50;99.90;;;;;;10429817;28;20239;-88
2023/01/25 21:37:21;;;;;;;108.00;49.83;;;2.50;99.90;;;;;;10450748;28;20267;-88
2023/01/25 21:42:24;;;;;;;106.03;49.80;;;2.90;99.90;;;;;;10451189;28;20199;-87
2023/01/25 21:47:29;;;;;;;96.40;44.83;;;2.60;99.90;;;;;;10450495;28;20276;-87
2023/01/25 21:52:35;;;;;;;91.03;43.80;;;2.90;99.90;;;;;;10449323;28;20238;-87
2023/01/25 21:57:45;;;;;;;90.30;41.27;;;2.90;99.90;;;;;;10444660;28;20948;-87
2023/01/25 22:02:50;;;;;;;71.60;37.80;;;3.00;99.90;;;;;;10455093;28;20682;-88
2023/01/25 22:07:53;;;;;;;105.30;51.27;;;;;;;;;;10436237;28;20594;-88
2023/01/25 22:12:56;;;;;;;109.43;45.00;;;1.90;99.90;;;;;;10456845;28;20221;-87
2023/01/25 22:17:58;;;;;;;89.73;39.70;;;1.60;99.90;;;;;;10498452;28;20226;-86
2023/01/25 22:23:01;;;;;;;82.00;39.80;;;;;;;;;;10489818;28;20217;-86
2023/01/25 22:28:10;;;;;;;84.40;38.73;;;2.00;99.90;;;;;;10488057;28;20191;-87
2023/01/25 22:33:13;;;;;;;80.13;38.13;;;1.90;99.90;;;;;;10510503;28;20207;-85
2023/01/25 22:38:16;;;;;;;90.77;43.37;;;;;;;;;;10469205;28;20592;-86
2023/01/25 22:43:18;;;;;;;79.43;38.50;;;2.30;99.90;;;;;;10481239;28;20187;-86
2023/01/25 22:48:21;;;;;;;85.57;39.50;;;;;;;;;;10469327;28;20199;-85
2023/01/25 22:53:24;;;;;;;84.83;38.97;;;2.60;99.90;;;;;;10485746;28;20230;-86
2023/01/25 22:58:27;;;;;;;77.20;36.63;;;;;;;;;;10498266;28;20596;-84
2023/01/25 23:03:29;;;;;;;82.00;38.80;;;;;;;;;;10489713;28;20555;-85
2023/01/25 23:08:34;;;;;;;81.73;39.33;;;2.70;99.90;;;;;;10494954;28;20221;-85
2023/01/25 23:13:38;;;;;;;85.03;39.37;;;2.60;99.90;;;;;;10499787;28;20535;-86
2023/01/25 23:18:50;;;;;;;86.00;40.90;;;2.70;99.90;;;;;;10485439;28;20238;-87
2023/01/25 23:23:53;;;;;;;91.43;40.37;;;3.00;99.90;;;;;;10503435;28;20195;-86
2023/01/25 23:28:56;;;;;;;80.77;39.33;;;2.90;99.90;;;;;;10506903;28;20229;-86
2023/01/25 23:34:01;;;;;;;96.60;43.57;;;2.80;99.90;;;;;;10502098;28;20180;-86
2023/01/25 23:39:04;;;;;;;94.70;42.57;;;2.90;99.90;;;;;;10497053;28;20230;-85
2023/01/25 23:44:08;;;;;;;76.87;36.17;;;3.10;99.90;;;;;;10498812;28;20206;-87
2023/01/25 23:54:42;;;;;;;80.60;37.20;;;3.00;99.90;;;;;;11735777;23;20281;-87
2023/01/25 23:59:44;;;;;;;68.57;35.07;;;3.30;99.90;;;;;;10379008;28;20251;-87
